sensor_id;sensor_type;location;lat;lon;timestamp;temperature;humidity
65231;DHT22;51813;40.666;16.602;2023-04-03T00:01:09;17.90;56.60
65231;DHT22;51813;40.666;16.602;2023-04-03T00:03:36;18.00;56.50
65231;DHT22;51813;40.666;16.602;2023-04-03T00:06:02;17.90;57.00
65231;DHT22;51813;40.666;16.602;2023-04-03T00:08:28;17.90;56.90
65231;DHT22;51813;40.666;16.602;2023-04-03T00:10:56;17.80;56.60
65231;DHT22;51813;40.666;16.602;2023-04-03T00:13:23;17.90;56.50
65231;DHT22;51813;40.666;16.602;2023-04-03T00:15:48;18.00;56.40
65231;DHT22;51813;40.666;16.602;2023-04-03T00:18:14;17.90;56.50
65231;DHT22;51813;40.666;16.602;2023-04-03T00:20:40;17.90;56.90
65231;DHT22;51813;40.666;16.602;2023-04-03T00:23:06;17.80;56.70
65231;DHT22;51813;40.666;16.602;2023-04-03T00:25:32;17.90;56.60
65231;DHT22;51813;40.666;16.602;2023-04-03T00:27:58;17.90;57.40
65231;DHT22;51813;40.666;16.602;2023-04-03T00:30:24;17.90;56.70
65231;DHT22;51813;40.666;16.602;2023-04-03T00:32:50;17.90;56.70
65231;DHT22;51813;40.666;16.602;2023-04-03T00:35:17;17.90;56.50
65231;DHT22;51813;40.666;16.602;2023-04-03T00:37:44;18.00;56.50
65231;DHT22;51813;40.666;16.602;2023-04-03T00:40:11;18.00;56.30
65231;DHT22;51813;40.666;16.602;2023-04-03T00:42:37;18.10;56.20
65231;DHT22;51813;40.666;16.602;2023-04-03T00:47:30;18.10;56.10
65231;DHT22;51813;40.666;16.602;2023-04-03T00:49:57;18.10;56.30
65231;DHT22;51813;40.666;16.602;2023-04-03T00:52:28;18.10;56.10
65231;DHT22;51813;40.666;16.602;2023-04-03T00:54:59;18.10;56.00
65231;DHT22;51813;40.666;16.602;2023-04-03T00:57:27;18.20;55.80
65231;DHT22;51813;40.666;16.602;2023-04-03T00:59:59;18.20;55.80
65231;DHT22;51813;40.666;16.602;2023-04-03T01:02:27;18.20;55.90
65231;DHT22;51813;40.666;16.602;2023-04-03T01:04:52;18.10;55.80
65231;DHT22;51813;40.666;16.602;2023-04-03T01:07:25;18.10;55.80
65231;DHT22;51813;40.666;16.602;2023-04-03T01:09:54;18.10;56.40
65231;DHT22;51813;40.666;16.602;2023-04-03T01:12:28;18.10;56.00
65231;DHT22;51813;40.666;16.602;2023-04-03T01:14:57;18.00;56.10
65231;DHT22;51813;40.666;16.602;2023-04-03T01:25:23;18.10;56.40
65231;DHT22;51813;40.666;16.602;2023-04-03T01:27:49;18.00;56.70
65231;DHT22;51813;40.666;16.602;2023-04-03T01:30:17;17.90;56.80
65231;DHT22;51813;40.666;16.602;2023-04-03T01:32:43;17.90;56.70
65231;DHT22;51813;40.666;16.602;2023-04-03T01:35:10;17.90;56.60
65231;DHT22;51813;40.666;16.602;2023-04-03T01:37:36;18.00;56.40
65231;DHT22;51813;40.666;16.602;2023-04-03T01:40:02;18.10;56.20
65231;DHT22;51813;40.666;16.602;2023-04-03T01:42:28;18.00;56.20
65231;DHT22;51813;40.666;16.602;2023-04-03T01:44:54;18.00;56.20
65231;DHT22;51813;40.666;16.602;2023-04-03T01:47:21;18.00;57.00
65231;DHT22;51813;40.666;16.602;2023-04-03T01:49:46;17.90;56.60
65231;DHT22;51813;40.666;16.602;2023-04-03T01:52:12;18.00;56.70
65231;DHT22;51813;40.666;16.602;2023-04-03T01:54:38;18.00;56.30
65231;DHT22;51813;40.666;16.602;2023-04-03T01:57:04;17.90;56.50
65231;DHT22;51813;40.666;16.602;2023-04-03T01:59:29;18.00;56.40
65231;DHT22;51813;40.666;16.602;2023-04-03T02:01:55;18.00;56.40
65231;DHT22;51813;40.666;16.602;2023-04-03T02:04:21;17.90;56.60
65231;DHT22;51813;40.666;16.602;2023-04-03T02:06:47;17.80;56.80
65231;DHT22;51813;40.666;16.602;2023-04-03T02:09:12;17.90;56.70
65231;DHT22;51813;40.666;16.602;2023-04-03T02:11:38;17.80;56.70
65231;DHT22;51813;40.666;16.602;2023-04-03T02:14:04;17.90;56.60
65231;DHT22;51813;40.666;16.602;2023-04-03T02:16:29;17.90;56.70
65231;DHT22;51813;40.666;16.602;2023-04-03T02:18:56;17.90;56.50
65231;DHT22;51813;40.666;16.602;2023-04-03T02:21:22;17.90;56.60
65231;DHT22;51813;40.666;16.602;2023-04-03T02:23:48;17.80;56.60
65231;DHT22;51813;40.666;16.602;2023-04-03T02:26:15;17.90;56.80
65231;DHT22;51813;40.666;16.602;2023-04-03T02:28:41;17.90;56.70
65231;DHT22;51813;40.666;16.602;2023-04-03T02:31:07;18.00;56.50
65231;DHT22;51813;40.666;16.602;2023-04-03T02:33:34;17.90;56.60
65231;DHT22;51813;40.666;16.602;2023-04-03T02:36:02;17.90;56.50
65231;DHT22;51813;40.666;16.602;2023-04-03T02:38:28;17.90;56.30
65231;DHT22;51813;40.666;16.602;2023-04-03T02:41:03;17.90;56.40
65231;DHT22;51813;40.666;16.602;2023-04-03T02:43:29;17.90;56.50
65231;DHT22;51813;40.666;16.602;2023-04-03T02:45:55;17.90;56.80
65231;DHT22;51813;40.666;16.602;2023-04-03T02:48:22;17.90;56.80
65231;DHT22;51813;40.666;16.602;2023-04-03T02:50:48;17.80;56.70
65231;DHT22;51813;40.666;16.602;2023-04-03T02:53:13;17.90;56.60
65231;DHT22;51813;40.666;16.602;2023-04-03T02:55:40;17.90;56.60
65231;DHT22;51813;40.666;16.602;2023-04-03T02:58:06;17.90;56.70
65231;DHT22;51813;40.666;16.602;2023-04-03T03:00:32;17.90;56.60
65231;DHT22;51813;40.666;16.602;2023-04-03T03:02:58;17.90;56.50
65231;DHT22;51813;40.666;16.602;2023-04-03T03:05:26;17.90;56.60
65231;DHT22;51813;40.666;16.602;2023-04-03T03:07:51;17.90;56.60
65231;DHT22;51813;40.666;16.602;2023-04-03T03:10:17;17.90;56.60
65231;DHT22;51813;40.666;16.602;2023-04-03T03:12:43;17.90;56.70
65231;DHT22;51813;40.666;16.602;2023-04-03T03:15:09;17.80;57.00
65231;DHT22;51813;40.666;16.602;2023-04-03T03:17:34;17.70;57.10
65231;DHT22;51813;40.666;16.602;2023-04-03T03:20:02;17.70;57.10
65231;DHT22;51813;40.666;16.602;2023-04-03T03:22:28;17.70;57.00
65231;DHT22;51813;40.666;16.602;2023-04-03T03:24:54;17.70;57.10
65231;DHT22;51813;40.666;16.602;2023-04-03T03:27:20;17.70;57.00
65231;DHT22;51813;40.666;16.602;2023-04-03T03:29:46;17.70;57.00
65231;DHT22;51813;40.666;16.602;2023-04-03T03:32:12;17.80;56.90
65231;DHT22;51813;40.666;16.602;2023-04-03T03:34:37;17.80;57.60
65231;DHT22;51813;40.666;16.602;2023-04-03T03:37:03;17.80;56.80
65231;DHT22;51813;40.666;16.602;2023-04-03T03:39:29;17.70;56.80
65231;DHT22;51813;40.666;16.602;2023-04-03T03:41:55;17.80;56.80
65231;DHT22;51813;40.666;16.602;2023-04-03T03:44:21;17.80;56.90
65231;DHT22;51813;40.666;16.602;2023-04-03T03:46:47;17.80;56.70
65231;DHT22;51813;40.666;16.602;2023-04-03T03:49:12;17.80;56.60
65231;DHT22;51813;40.666;16.602;2023-04-03T03:51:39;17.80;56.80
65231;DHT22;51813;40.666;16.602;2023-04-03T03:54:06;17.70;56.80
65231;DHT22;51813;40.666;16.602;2023-04-03T03:56:31;17.80;56.60
65231;DHT22;51813;40.666;16.602;2023-04-03T03:58:57;17.80;56.70
65231;DHT22;51813;40.666;16.602;2023-04-03T04:01:23;17.90;56.60
65231;DHT22;51813;40.666;16.602;2023-04-03T04:03:50;17.80;56.40
65231;DHT22;51813;40.666;16.602;2023-04-03T04:06:16;17.70;56.70
65231;DHT22;51813;40.666;16.602;2023-04-03T04:08:42;17.70;56.90
65231;DHT22;51813;40.666;16.602;2023-04-03T04:11:08;17.80;56.90
65231;DHT22;51813;40.666;16.602;2023-04-03T04:13:34;17.80;56.80
65231;DHT22;51813;40.666;16.602;2023-04-03T04:16:00;17.70;56.90
65231;DHT22;51813;40.666;16.602;2023-04-03T04:18:26;17.80;57.00
65231;DHT22;51813;40.666;16.602;2023-04-03T04:20:51;17.80;56.90
65231;DHT22;51813;40.666;16.602;2023-04-03T04:23:18;17.80;56.80
65231;DHT22;51813;40.666;16.602;2023-04-03T04:25:47;17.80;57.50
65231;DHT22;51813;40.666;16.602;2023-04-03T04:28:14;17.80;56.70
65231;DHT22;51813;40.666;16.602;2023-04-03T04:30:40;17.90;56.70
65231;DHT22;51813;40.666;16.602;2023-04-03T04:33:05;17.90;56.70
65231;DHT22;51813;40.666;16.602;2023-04-03T04:35:32;17.90;56.60
65231;DHT22;51813;40.666;16.602;2023-04-03T04:37:58;17.80;56.60
65231;DHT22;51813;40.666;16.602;2023-04-03T04:40:24;17.80;56.50
65231;DHT22;51813;40.666;16.602;2023-04-03T04:42:50;17.80;56.70
65231;DHT22;51813;40.666;16.602;2023-04-03T04:45:15;17.80;56.50
65231;DHT22;51813;40.666;16.602;2023-04-03T04:47:41;17.80;56.80
65231;DHT22;51813;40.666;16.602;2023-04-03T04:50:08;17.80;56.70
65231;DHT22;51813;40.666;16.602;2023-04-03T04:52:33;17.90;56.50
65231;DHT22;51813;40.666;16.602;2023-04-03T04:54:59;17.80;56.60
65231;DHT22;51813;40.666;16.602;2023-04-03T04:57:25;17.70;56.90
65231;DHT22;51813;40.666;16.602;2023-04-03T04:59:51;17.80;57.00
65231;DHT22;51813;40.666;16.602;2023-04-03T05:02:16;17.80;56.90
65231;DHT22;51813;40.666;16.602;2023-04-03T05:04:42;17.70;57.00
65231;DHT22;51813;40.666;16.602;2023-04-03T05:07:08;17.80;57.10
65231;DHT22;51813;40.666;16.602;2023-04-03T05:09:33;17.80;57.00
65231;DHT22;51813;40.666;16.602;2023-04-03T05:11:59;17.80;57.10
65231;DHT22;51813;40.666;16.602;2023-04-03T05:14:25;17.80;56.90
65231;DHT22;51813;40.666;16.602;2023-04-03T05:16:51;17.80;57.10
65231;DHT22;51813;40.666;16.602;2023-04-03T05:19:20;17.70;57.20
65231;DHT22;51813;40.666;16.602;2023-04-03T05:21:46;17.80;57.20
65231;DHT22;51813;40.666;16.602;2023-04-03T05:24:12;17.80;57.20
65231;DHT22;51813;40.666;16.602;2023-04-03T05:26:38;17.60;57.50
65231;DHT22;51813;40.666;16.602;2023-04-03T05:29:04;17.70;57.60
65231;DHT22;51813;40.666;16.602;2023-04-03T05:31:30;17.70;57.60
65231;DHT22;51813;40.666;16.602;2023-04-03T05:33:56;17.70;57.40
65231;DHT22;51813;40.666;16.602;2023-04-03T05:36:22;17.70;58.00
65231;DHT22;51813;40.666;16.602;2023-04-03T05:38:48;17.60;57.80
65231;DHT22;51813;40.666;16.602;2023-04-03T05:41:15;17.60;57.70
65231;DHT22;51813;40.666;16.602;2023-04-03T05:43:40;17.70;57.70
65231;DHT22;51813;40.666;16.602;2023-04-03T05:46:11;17.70;57.50
65231;DHT22;51813;40.666;16.602;2023-04-03T05:48:37;17.70;57.50
65231;DHT22;51813;40.666;16.602;2023-04-03T05:51:04;17.70;57.70
65231;DHT22;51813;40.666;16.602;2023-04-03T05:53:31;17.70;57.70
65231;DHT22;51813;40.666;16.602;2023-04-03T05:55:58;17.70;57.70
65231;DHT22;51813;40.666;16.602;2023-04-03T05:58:24;17.60;57.70
65231;DHT22;51813;40.666;16.602;2023-04-03T06:00:50;17.60;57.80
65231;DHT22;51813;40.666;16.602;2023-04-03T06:03:15;17.50;57.90
65231;DHT22;51813;40.666;16.602;2023-04-03T06:05:42;17.50;57.70
65231;DHT22;51813;40.666;16.602;2023-04-03T06:08:08;17.50;57.70
65231;DHT22;51813;40.666;16.602;2023-04-03T06:10:34;17.60;57.60
65231;DHT22;51813;40.666;16.602;2023-04-03T06:13:01;17.60;57.70
65231;DHT22;51813;40.666;16.602;2023-04-03T06:15:27;17.70;57.60
65231;DHT22;51813;40.666;16.602;2023-04-03T06:17:53;17.60;57.70
65231;DHT22;51813;40.666;16.602;2023-04-03T06:20:19;17.70;57.50
65231;DHT22;51813;40.666;16.602;2023-04-03T06:22:45;17.70;57.50
65231;DHT22;51813;40.666;16.602;2023-04-03T06:25:11;17.70;57.30
65231;DHT22;51813;40.666;16.602;2023-04-03T06:27:38;17.70;57.30
65231;DHT22;51813;40.666;16.602;2023-04-03T06:30:05;17.80;57.00
65231;DHT22;51813;40.666;16.602;2023-04-03T06:32:31;17.70;57.20
65231;DHT22;51813;40.666;16.602;2023-04-03T06:34:57;17.70;57.40
65231;DHT22;51813;40.666;16.602;2023-04-03T06:37:24;17.70;57.20
65231;DHT22;51813;40.666;16.602;2023-04-03T06:39:51;17.70;57.00
65231;DHT22;51813;40.666;16.602;2023-04-03T06:42:17;17.70;57.00
65231;DHT22;51813;40.666;16.602;2023-04-03T06:44:43;17.70;57.10
65231;DHT22;51813;40.666;16.602;2023-04-03T06:47:16;17.80;57.00
65231;DHT22;51813;40.666;16.602;2023-04-03T06:49:42;17.70;57.20
65231;DHT22;51813;40.666;16.602;2023-04-03T06:52:08;17.70;57.20
65231;DHT22;51813;40.666;16.602;2023-04-03T06:54:35;17.70;57.30
65231;DHT22;51813;40.666;16.602;2023-04-03T06:57:01;17.70;57.50
65231;DHT22;51813;40.666;16.602;2023-04-03T06:59:27;17.70;57.40
65231;DHT22;51813;40.666;16.602;2023-04-03T07:01:53;17.70;57.20
65231;DHT22;51813;40.666;16.602;2023-04-03T07:04:19;17.80;57.20
65231;DHT22;51813;40.666;16.602;2023-04-03T07:06:46;17.70;57.40
65231;DHT22;51813;40.666;16.602;2023-04-03T07:09:13;17.70;57.60
65231;DHT22;51813;40.666;16.602;2023-04-03T07:11:39;17.70;57.50
65231;DHT22;51813;40.666;16.602;2023-04-03T07:14:05;17.70;57.70
65231;DHT22;51813;40.666;16.602;2023-04-03T07:16:34;17.60;57.90
65231;DHT22;51813;40.666;16.602;2023-04-03T07:19:00;17.60;57.70
65231;DHT22;51813;40.666;16.602;2023-04-03T07:21:27;17.60;57.90
65231;DHT22;51813;40.666;16.602;2023-04-03T07:23:53;17.60;57.90
65231;DHT22;51813;40.666;16.602;2023-04-03T07:26:19;17.70;58.30
65231;DHT22;51813;40.666;16.602;2023-04-03T07:28:46;17.70;57.80
65231;DHT22;51813;40.666;16.602;2023-04-03T07:31:14;17.60;57.90
65231;DHT22;51813;40.666;16.602;2023-04-03T07:33:41;17.60;55.90
65231;DHT22;51813;40.666;16.602;2023-04-03T07:36:07;17.60;56.60
65231;DHT22;51813;40.666;16.602;2023-04-03T07:38:36;17.50;56.40
65231;DHT22;51813;40.666;16.602;2023-04-03T07:41:03;17.50;57.00
65231;DHT22;51813;40.666;16.602;2023-04-03T07:43:29;17.50;57.10
65231;DHT22;51813;40.666;16.602;2023-04-03T07:45:55;17.60;56.60
65231;DHT22;51813;40.666;16.602;2023-04-03T07:48:22;17.50;56.80
65231;DHT22;51813;40.666;16.602;2023-04-03T07:50:49;17.50;57.30
65231;DHT22;51813;40.666;16.602;2023-04-03T07:53:15;17.50;57.30
65231;DHT22;51813;40.666;16.602;2023-04-03T07:55:41;17.50;57.50
65231;DHT22;51813;40.666;16.602;2023-04-03T07:58:14;17.40;57.80
65231;DHT22;51813;40.666;16.602;2023-04-03T08:00:41;17.50;58.80
65231;DHT22;51813;40.666;16.602;2023-04-03T08:03:09;17.40;59.10
65231;DHT22;51813;40.666;16.602;2023-04-03T08:05:40;17.50;58.90
65231;DHT22;51813;40.666;16.602;2023-04-03T08:08:07;17.50;59.20
65231;DHT22;51813;40.666;16.602;2023-04-03T08:10:33;17.50;59.40
65231;DHT22;51813;40.666;16.602;2023-04-03T08:12:59;17.50;59.60
65231;DHT22;51813;40.666;16.602;2023-04-03T08:15:25;17.50;59.10
65231;DHT22;51813;40.666;16.602;2023-04-03T08:17:52;17.50;59.80
65231;DHT22;51813;40.666;16.602;2023-04-03T08:20:18;17.50;59.50
65231;DHT22;51813;40.666;16.602;2023-04-03T08:22:44;17.50;59.60
65231;DHT22;51813;40.666;16.602;2023-04-03T08:25:09;17.50;59.00
65231;DHT22;51813;40.666;16.602;2023-04-03T08:27:35;17.60;58.90
65231;DHT22;51813;40.666;16.602;2023-04-03T08:30:02;17.60;58.80
65231;DHT22;51813;40.666;16.602;2023-04-03T08:32:28;17.60;58.90
65231;DHT22;51813;40.666;16.602;2023-04-03T08:34:54;17.60;58.80
65231;DHT22;51813;40.666;16.602;2023-04-03T08:37:21;17.60;58.50
65231;DHT22;51813;40.666;16.602;2023-04-03T08:39:46;17.60;58.50
65231;DHT22;51813;40.666;16.602;2023-04-03T08:48:04;17.70;57.70
65231;DHT22;51813;40.666;16.602;2023-04-03T08:50:36;17.70;58.10
65231;DHT22;51813;40.666;16.602;2023-04-03T08:53:04;17.70;58.10
65231;DHT22;51813;40.666;16.602;2023-04-03T08:55:40;17.70;57.70
65231;DHT22;51813;40.666;16.602;2023-04-03T08:58:23;17.80;57.70
65231;DHT22;51813;40.666;16.602;2023-04-03T09:01:17;17.80;57.80
65231;DHT22;51813;40.666;16.602;2023-04-03T09:03:43;17.80;57.70
65231;DHT22;51813;40.666;16.602;2023-04-03T09:06:21;17.80;57.40
65231;DHT22;51813;40.666;16.602;2023-04-03T09:16:56;17.80;57.40
65231;DHT22;51813;40.666;16.602;2023-04-03T09:22:20;17.80;57.30
65231;DHT22;51813;40.666;16.602;2023-04-03T09:27:33;17.80;57.20
65231;DHT22;51813;40.666;16.602;2023-04-03T09:29:59;17.80;57.30
65231;DHT22;51813;40.666;16.602;2023-04-03T09:32:30;17.90;57.10
65231;DHT22;51813;40.666;16.602;2023-04-03T09:35:01;17.90;57.10
65231;DHT22;51813;40.666;16.602;2023-04-03T09:37:37;17.90;57.00
65231;DHT22;51813;40.666;16.602;2023-04-03T09:40:04;18.00;57.10
65231;DHT22;51813;40.666;16.602;2023-04-03T09:42:31;18.00;56.80
65231;DHT22;51813;40.666;16.602;2023-04-03T09:45:05;18.00;56.70
65231;DHT22;51813;40.666;16.602;2023-04-03T09:47:34;18.00;56.80
65231;DHT22;51813;40.666;16.602;2023-04-03T09:50:21;17.90;57.00
65231;DHT22;51813;40.666;16.602;2023-04-03T09:52:50;17.90;57.00
65231;DHT22;51813;40.666;16.602;2023-04-03T09:55:23;18.00;56.60
65231;DHT22;51813;40.666;16.602;2023-04-03T09:58:00;18.00;57.00
65231;DHT22;51813;40.666;16.602;2023-04-03T10:00:37;18.00;56.70
65231;DHT22;51813;40.666;16.602;2023-04-03T10:03:04;18.00;56.80
65231;DHT22;51813;40.666;16.602;2023-04-03T10:05:39;18.00;56.50
65231;DHT22;51813;40.666;16.602;2023-04-03T10:10:45;18.10;56.40
65231;DHT22;51813;40.666;16.602;2023-04-03T10:13:17;18.10;56.30
65231;DHT22;51813;40.666;16.602;2023-04-03T10:15:50;18.20;55.80
65231;DHT22;51813;40.666;16.602;2023-04-03T10:18:32;18.30;55.50
65231;DHT22;51813;40.666;16.602;2023-04-03T10:24:23;18.70;54.60
65231;DHT22;51813;40.666;16.602;2023-04-03T10:27:02;18.80;54.10
65231;DHT22;51813;40.666;16.602;2023-04-03T10:35:16;19.10;52.80
65231;DHT22;51813;40.666;16.602;2023-04-03T10:43:39;19.40;52.10
65231;DHT22;51813;40.666;16.602;2023-04-03T10:55:02;19.90;51.40
65231;DHT22;51813;40.666;16.602;2023-04-03T10:57:32;20.00;50.30
65231;DHT22;51813;40.666;16.602;2023-04-03T11:00:03;19.80;50.60
65231;DHT22;51813;40.666;16.602;2023-04-03T11:02:42;20.00;50.30
65231;DHT22;51813;40.666;16.602;2023-04-03T11:05:39;20.10;49.70
65231;DHT22;51813;40.666;16.602;2023-04-03T11:08:17;20.00;50.00
65231;DHT22;51813;40.666;16.602;2023-04-03T11:10:50;20.00;50.00
65231;DHT22;51813;40.666;16.602;2023-04-03T11:13:21;20.00;49.90
65231;DHT22;51813;40.666;16.602;2023-04-03T11:15:49;19.90;50.20
65231;DHT22;51813;40.666;16.602;2023-04-03T11:18:28;19.90;50.60
65231;DHT22;51813;40.666;16.602;2023-04-03T11:21:04;19.90;50.80
65231;DHT22;51813;40.666;16.602;2023-04-03T11:23:35;19.90;50.90
65231;DHT22;51813;40.666;16.602;2023-04-03T11:26:13;20.00;50.70
65231;DHT22;51813;40.666;16.602;2023-04-03T11:28:40;20.00;50.80
65231;DHT22;51813;40.666;16.602;2023-04-03T11:33:58;20.20;50.50
65231;DHT22;51813;40.666;16.602;2023-04-03T11:36:32;20.20;50.50
65231;DHT22;51813;40.666;16.602;2023-04-03T11:39:13;20.20;50.50
65231;DHT22;51813;40.666;16.602;2023-04-03T11:41:40;20.10;50.60
65231;DHT22;51813;40.666;16.602;2023-04-03T11:47:01;20.30;50.40
65231;DHT22;51813;40.666;16.602;2023-04-03T12:13:41;20.30;50.80
65231;DHT22;51813;40.666;16.602;2023-04-03T12:16:24;20.30;50.70
65231;DHT22;51813;40.666;16.602;2023-04-03T12:24:04;20.20;51.20
65231;DHT22;51813;40.666;16.602;2023-04-03T12:28:58;20.30;50.80
65231;DHT22;51813;40.666;16.602;2023-04-03T12:31:30;20.60;50.60
65231;DHT22;51813;40.666;16.602;2023-04-03T12:51:15;20.50;50.80
65231;DHT22;51813;40.666;16.602;2023-04-03T12:53:42;20.50;50.70
65231;DHT22;51813;40.666;16.602;2023-04-03T12:56:28;20.60;50.50
65231;DHT22;51813;40.666;16.602;2023-04-03T13:01:40;20.50;50.50
65231;DHT22;51813;40.666;16.602;2023-04-03T13:04:06;20.50;50.50
65231;DHT22;51813;40.666;16.602;2023-04-03T13:06:42;20.40;51.00
65231;DHT22;51813;40.666;16.602;2023-04-03T13:09:29;20.30;50.90
65231;DHT22;51813;40.666;16.602;2023-04-03T13:12:03;20.30;50.80
65231;DHT22;51813;40.666;16.602;2023-04-03T13:14:34;20.20;50.70
65231;DHT22;51813;40.666;16.602;2023-04-03T13:17:26;20.20;51.00
65231;DHT22;51813;40.666;16.602;2023-04-03T13:19:53;20.30;50.60
65231;DHT22;51813;40.666;16.602;2023-04-03T13:22:37;20.20;50.60
65231;DHT22;51813;40.666;16.602;2023-04-03T13:25:11;20.20;50.60
65231;DHT22;51813;40.666;16.602;2023-04-03T13:27:38;20.40;50.50
65231;DHT22;51813;40.666;16.602;2023-04-03T13:30:06;20.20;51.60
65231;DHT22;51813;40.666;16.602;2023-04-03T13:32:32;20.30;51.00
65231;DHT22;51813;40.666;16.602;2023-04-03T13:34:59;20.60;50.30
65231;DHT22;51813;40.666;16.602;2023-04-03T13:37:33;20.50;50.00
65231;DHT22;51813;40.666;16.602;2023-04-03T13:42:34;20.60;49.10
65231;DHT22;51813;40.666;16.602;2023-04-03T13:45:26;20.60;49.00
65231;DHT22;51813;40.666;16.602;2023-04-03T13:48:08;20.60;49.30
65231;DHT22;51813;40.666;16.602;2023-04-03T13:50:51;20.70;49.00
65231;DHT22;51813;40.666;16.602;2023-04-03T13:53:17;20.60;49.40
65231;DHT22;51813;40.666;16.602;2023-04-03T14:00:39;20.40;49.60
65231;DHT22;51813;40.666;16.602;2023-04-03T14:03:23;20.30;49.30
65231;DHT22;51813;40.666;16.602;2023-04-03T14:05:49;20.40;50.00
65231;DHT22;51813;40.666;16.602;2023-04-03T14:08:16;20.20;49.80
65231;DHT22;51813;40.666;16.602;2023-04-03T14:10:42;19.90;50.50
65231;DHT22;51813;40.666;16.602;2023-04-03T14:13:13;19.90;50.80
65231;DHT22;51813;40.666;16.602;2023-04-03T14:15:39;19.90;51.30
65231;DHT22;51813;40.666;16.602;2023-04-03T14:18:05;19.90;50.80
65231;DHT22;51813;40.666;16.602;2023-04-03T14:20:31;19.80;50.70
65231;DHT22;51813;40.666;16.602;2023-04-03T14:22:57;19.80;51.30
65231;DHT22;51813;40.666;16.602;2023-04-03T14:25:23;19.80;51.40
65231;DHT22;51813;40.666;16.602;2023-04-03T14:27:52;20.00;51.10
65231;DHT22;51813;40.666;16.602;2023-04-03T14:30:25;19.70;51.50
65231;DHT22;51813;40.666;16.602;2023-04-03T14:32:52;19.70;51.70
65231;DHT22;51813;40.666;16.602;2023-04-03T14:35:18;19.70;51.90
65231;DHT22;51813;40.666;16.602;2023-04-03T14:37:45;19.60;51.80
65231;DHT22;51813;40.666;16.602;2023-04-03T14:40:25;19.60;52.00
65231;DHT22;51813;40.666;16.602;2023-04-03T14:42:51;19.70;51.70
65231;DHT22;51813;40.666;16.602;2023-04-03T14:45:21;19.60;51.70
65231;DHT22;51813;40.666;16.602;2023-04-03T14:47:49;19.50;51.90
65231;DHT22;51813;40.666;16.602;2023-04-03T14:50:22;19.70;51.70
65231;DHT22;51813;40.666;16.602;2023-04-03T14:52:48;19.70;51.50
65231;DHT22;51813;40.666;16.602;2023-04-03T14:55:16;19.60;51.50
65231;DHT22;51813;40.666;16.602;2023-04-03T14:57:42;19.60;51.20
65231;DHT22;51813;40.666;16.602;2023-04-03T15:00:13;19.50;51.90
65231;DHT22;51813;40.666;16.602;2023-04-03T15:02:39;19.60;51.80
65231;DHT22;51813;40.666;16.602;2023-04-03T15:05:08;19.80;52.30
65231;DHT22;51813;40.666;16.602;2023-04-03T15:07:37;19.70;51.40
65231;DHT22;51813;40.666;16.602;2023-04-03T15:12:41;19.60;51.80
65231;DHT22;51813;40.666;16.602;2023-04-03T15:15:07;19.60;51.80
65231;DHT22;51813;40.666;16.602;2023-04-03T15:17:33;19.70;51.70
65231;DHT22;51813;40.666;16.602;2023-04-03T15:20:00;19.90;51.20
65231;DHT22;51813;40.666;16.602;2023-04-03T15:22:26;19.70;51.30
65231;DHT22;51813;40.666;16.602;2023-04-03T15:24:51;19.70;51.50
65231;DHT22;51813;40.666;16.602;2023-04-03T15:27:17;19.70;51.10
65231;DHT22;51813;40.666;16.602;2023-04-03T15:29:44;19.70;51.30
65231;DHT22;51813;40.666;16.602;2023-04-03T15:32:11;19.70;51.10
65231;DHT22;51813;40.666;16.602;2023-04-03T15:34:37;19.80;51.10
65231;DHT22;51813;40.666;16.602;2023-04-03T15:37:03;19.70;51.10
65231;DHT22;51813;40.666;16.602;2023-04-03T15:39:29;19.50;51.40
65231;DHT22;51813;40.666;16.602;2023-04-03T15:41:55;19.60;51.00
65231;DHT22;51813;40.666;16.602;2023-04-03T15:44:22;19.50;51.30
65231;DHT22;51813;40.666;16.602;2023-04-03T15:46:48;19.50;51.50
65231;DHT22;51813;40.666;16.602;2023-04-03T15:49:19;19.60;51.20
65231;DHT22;51813;40.666;16.602;2023-04-03T15:51:46;19.50;51.40
65231;DHT22;51813;40.666;16.602;2023-04-03T15:54:12;19.50;50.90
65231;DHT22;51813;40.666;16.602;2023-04-03T15:56:38;19.50;51.50
65231;DHT22;51813;40.666;16.602;2023-04-03T15:59:03;19.60;50.80
65231;DHT22;51813;40.666;16.602;2023-04-03T16:01:29;19.50;50.90
65231;DHT22;51813;40.666;16.602;2023-04-03T16:03:55;19.50;50.80
65231;DHT22;51813;40.666;16.602;2023-04-03T16:06:21;19.50;51.20
65231;DHT22;51813;40.666;16.602;2023-04-03T16:08:48;19.50;51.50
65231;DHT22;51813;40.666;16.602;2023-04-03T16:11:14;19.50;51.00
65231;DHT22;51813;40.666;16.602;2023-04-03T16:13:40;19.60;50.90
65231;DHT22;51813;40.666;16.602;2023-04-03T16:16:06;19.50;50.80
65231;DHT22;51813;40.666;16.602;2023-04-03T16:18:34;19.60;50.60
65231;DHT22;51813;40.666;16.602;2023-04-03T16:21:00;19.40;51.00
65231;DHT22;51813;40.666;16.602;2023-04-03T16:23:26;19.60;50.70
65231;DHT22;51813;40.666;16.602;2023-04-03T16:25:52;19.50;50.70
65231;DHT22;51813;40.666;16.602;2023-04-03T16:28:18;19.60;51.60
65231;DHT22;51813;40.666;16.602;2023-04-03T16:30:45;19.50;50.30
65231;DHT22;51813;40.666;16.602;2023-04-03T16:33:12;19.40;50.60
65231;DHT22;51813;40.666;16.602;2023-04-03T16:35:39;19.30;50.60
65231;DHT22;51813;40.666;16.602;2023-04-03T16:38:05;19.40;50.90
65231;DHT22;51813;40.666;16.602;2023-04-03T16:40:31;19.50;50.50
65231;DHT22;51813;40.666;16.602;2023-04-03T16:42:59;19.60;50.50
65231;DHT22;51813;40.666;16.602;2023-04-03T16:45:25;19.50;50.80
65231;DHT22;51813;40.666;16.602;2023-04-03T16:47:50;19.50;51.00
65231;DHT22;51813;40.666;16.602;2023-04-03T16:50:16;19.40;51.00
65231;DHT22;51813;40.666;16.602;2023-04-03T16:52:42;19.40;51.10
65231;DHT22;51813;40.666;16.602;2023-04-03T16:55:08;19.40;51.20
65231;DHT22;51813;40.666;16.602;2023-04-03T16:57:33;19.40;51.10
65231;DHT22;51813;40.666;16.602;2023-04-03T16:59:59;19.50;51.20
65231;DHT22;51813;40.666;16.602;2023-04-03T17:02:25;19.50;50.90
65231;DHT22;51813;40.666;16.602;2023-04-03T17:04:52;19.50;51.00
65231;DHT22;51813;40.666;16.602;2023-04-03T17:07:19;19.60;50.90
65231;DHT22;51813;40.666;16.602;2023-04-03T17:09:45;19.60;50.90
65231;DHT22;51813;40.666;16.602;2023-04-03T17:12:11;19.70;50.80
65231;DHT22;51813;40.666;16.602;2023-04-03T17:14:37;19.70;50.90
65231;DHT22;51813;40.666;16.602;2023-04-03T17:17:03;19.70;50.90
65231;DHT22;51813;40.666;16.602;2023-04-03T17:19:29;19.80;50.60
65231;DHT22;51813;40.666;16.602;2023-04-03T17:21:55;19.90;50.70
65231;DHT22;51813;40.666;16.602;2023-04-03T17:24:21;20.00;50.40